WMT1Z LATI-LEXJ
Flight info
| Callsign | WMT1Z |
|---|---|
| Flight time | N/A |
| Altitude | 36000 |
| Route | DIRES DCT ASPIR DCT TIMOV DCT MIRSA A3 RUBIT G7 OB DCT PADKO UY342 BULTO Y341 SALIN Y25 FJR DCT DEGOL DCT MAGEC DCT DOSUL N75 XORNA |
| Aircraft | A21N/M-SDE1E2E3FGIJ1J4RWXY/LB1 |
Departure
| Time | 2026-05-07 14:44 |
|---|---|
| Airport | Tirana International Airport Mother Teresa (LATI) |
Arrival
| Time | N/A |
|---|---|
| Airport | Seve Ballesteros-Santander Airport (LEXJ) |
| Time | Latitude | Longitude | Altitude | Speed | Heading |
|---|---|---|---|---|---|
| 2026-05-07 14:29 | 41.41911 | 19.71525 | 134 ft | 0 kts | 264° |
| 2026-05-07 14:36 | 41.41912 | 19.71542 | 134 ft | 2 kts | 264° |
| 2026-05-07 14:37 | 41.41913 | 19.71562 | 134 ft | 2 kts | 278° |
| 2026-05-07 14:37 | 41.41895 | 19.71591 | 134 ft | 1 kts | 346° |
| 2026-05-07 14:37 | 41.41888 | 19.71592 | 134 ft | 1 kts | 358° |
| 2026-05-07 14:38 | 41.41885 | 19.71593 | 134 ft | 0 kts | 355° |
| 2026-05-07 14:40 | 41.41899 | 19.71591 | 134 ft | 6 kts | 355° |
| 2026-05-07 14:40 | 41.41980 | 19.71580 | 134 ft | 16 kts | 354° |
| 2026-05-07 14:41 | 41.42091 | 19.71560 | 134 ft | 15 kts | 359° |
| 2026-05-07 14:41 | 41.42199 | 19.71552 | 134 ft | 15 kts | 354° |
| 2026-05-07 14:41 | 41.42305 | 19.71536 | 134 ft | 15 kts | 356° |
| 2026-05-07 14:41 | 41.42411 | 19.71524 | 134 ft | 15 kts | 354° |
| 2026-05-07 14:42 | 41.42514 | 19.71509 | 134 ft | 14 kts | 355° |
| 2026-05-07 14:42 | 41.42616 | 19.71496 | 134 ft | 13 kts | 356° |
| 2026-05-07 14:42 | 41.42671 | 19.71578 | 134 ft | 13 kts | 83° |
| 2026-05-07 14:42 | 41.42681 | 19.71703 | 134 ft | 13 kts | 84° |
| 2026-05-07 14:43 | 41.42691 | 19.71827 | 134 ft | 13 kts | 84° |
| 2026-05-07 14:43 | 41.42665 | 19.71899 | 134 ft | 9 kts | 167° |
| 2026-05-07 14:43 | 41.42559 | 19.71915 | 134 ft | 39 kts | 174° |
| 2026-05-07 14:43 | 41.42033 | 19.71984 | 134 ft | 110 kts | 175° |
| 2026-05-07 14:44 | 41.41054 | 19.72117 | 135 ft | 168 kts | 177° |
| 2026-05-07 14:44 | 41.39816 | 19.72284 | 407 ft | 189 kts | 177° |
| 2026-05-07 14:44 | 41.38511 | 19.72461 | 1141 ft | 188 kts | 177° |
| 2026-05-07 14:44 | 41.37234 | 19.72632 | 1752 ft | 189 kts | 177° |
| 2026-05-07 14:45 | 41.35864 | 19.72812 | 2063 ft | 205 kts | 177° |
| 2026-05-07 14:45 | 41.34396 | 19.73003 | 2374 ft | 221 kts | 176° |
| 2026-05-07 14:45 | 41.32806 | 19.73212 | 2652 ft | 241 kts | 176° |
| 2026-05-07 14:45 | 41.31043 | 19.73444 | 2992 ft | 261 kts | 176° |
| 2026-05-07 14:46 | 41.29194 | 19.73689 | 3475 ft | 275 kts | 176° |
| 2026-05-07 14:46 | 41.27285 | 19.73942 | 4197 ft | 279 kts | 176° |
| 2026-05-07 14:46 | 41.25389 | 19.73773 | 4902 ft | 280 kts | 200° |
| 2026-05-07 14:46 | 41.23766 | 19.72433 | 5618 ft | 278 kts | 230° |
| 2026-05-07 14:47 | 41.22763 | 19.70255 | 6345 ft | 278 kts | 248° |
| 2026-05-07 14:47 | 41.21999 | 19.67883 | 7045 ft | 283 kts | 250° |
| 2026-05-07 14:47 | 41.21238 | 19.65462 | 7742 ft | 288 kts | 249° |
| 2026-05-07 14:47 | 41.20458 | 19.63022 | 8445 ft | 292 kts | 249° |
| 2026-05-07 14:48 | 41.19651 | 19.60540 | 9135 ft | 296 kts | 248° |
| 2026-05-07 14:48 | 41.18823 | 19.58025 | 9809 ft | 300 kts | 248° |
| 2026-05-07 14:48 | 41.17977 | 19.55477 | 10424 ft | 306 kts | 248° |
| 2026-05-07 14:48 | 41.17088 | 19.52807 | 10753 ft | 323 kts | 247° |
| 2026-05-07 14:49 | 41.16161 | 19.50036 | 11119 ft | 336 kts | 247° |
| 2026-05-07 14:49 | 41.15212 | 19.47204 | 11724 ft | 341 kts | 247° |
| 2026-05-07 14:49 | 41.14246 | 19.44327 | 12379 ft | 344 kts | 246° |
| 2026-05-07 14:49 | 41.13260 | 19.41398 | 13006 ft | 347 kts | 247° |
| 2026-05-07 14:50 | 41.12277 | 19.38482 | 13606 ft | 351 kts | 247° |
| 2026-05-07 14:50 | 41.11282 | 19.35535 | 14196 ft | 354 kts | 247° |
| 2026-05-07 14:50 | 41.10274 | 19.32551 | 14782 ft | 357 kts | 246° |
| 2026-05-07 14:50 | 41.09245 | 19.29507 | 15371 ft | 360 kts | 247° |
| 2026-05-07 14:51 | 41.08226 | 19.26493 | 15940 ft | 363 kts | 247° |
| 2026-05-07 14:51 | 41.07182 | 19.23406 | 16507 ft | 365 kts | 248° |
| 2026-05-07 14:51 | 41.06392 | 19.20240 | 17029 ft | 365 kts | 263° |
| 2026-05-07 14:51 | 41.06354 | 19.16888 | 17561 ft | 361 kts | 282° |
| 2026-05-07 14:52 | 41.06958 | 19.13712 | 18101 ft | 359 kts | 290° |
| 2026-05-07 14:52 | 41.07713 | 19.10558 | 18619 ft | 361 kts | 292° |
| 2026-05-07 14:52 | 41.08496 | 19.07346 | 19141 ft | 363 kts | 292° |
| 2026-05-07 14:52 | 41.09262 | 19.04178 | 19662 ft | 364 kts | 292° |
| 2026-05-07 14:53 | 41.10022 | 19.00990 | 20187 ft | 365 kts | 293° |
| 2026-05-07 14:53 | 41.10779 | 18.97784 | 20715 ft | 365 kts | 293° |
| 2026-05-07 14:53 | 41.11538 | 18.94552 | 21242 ft | 365 kts | 293° |
| 2026-05-07 14:53 | 41.12295 | 18.91311 | 21736 ft | 366 kts | 294° |
| 2026-05-07 14:54 | 41.13049 | 18.88080 | 22178 ft | 368 kts | 294° |
| 2026-05-07 14:54 | 41.13799 | 18.84857 | 22636 ft | 369 kts | 294° |
| 2026-05-07 14:54 | 41.14552 | 18.81604 | 23163 ft | 368 kts | 294° |
| 2026-05-07 14:54 | 41.15298 | 18.78377 | 23618 ft | 368 kts | 294° |
| 2026-05-07 14:55 | 41.16060 | 18.75075 | 24024 ft | 370 kts | 295° |
| 2026-05-07 14:55 | 41.16816 | 18.71797 | 24422 ft | 372 kts | 295° |
| 2026-05-07 14:55 | 41.17565 | 18.68541 | 24819 ft | 373 kts | 295° |
| 2026-05-07 14:55 | 41.18333 | 18.65199 | 25208 ft | 375 kts | 295° |
| 2026-05-07 14:56 | 41.19093 | 18.61887 | 25580 ft | 377 kts | 295° |
| 2026-05-07 14:56 | 41.19861 | 18.58535 | 25943 ft | 378 kts | 295° |
| 2026-05-07 14:56 | 41.20632 | 18.55159 | 26304 ft | 380 kts | 295° |
| 2026-05-07 14:56 | 41.21401 | 18.51792 | 26656 ft | 381 kts | 295° |
| 2026-05-07 14:57 | 41.22176 | 18.48386 | 26986 ft | 383 kts | 295° |
| 2026-05-07 14:57 | 41.22944 | 18.45010 | 27314 ft | 385 kts | 295° |
| 2026-05-07 14:57 | 41.23721 | 18.41587 | 27651 ft | 386 kts | 295° |
| 2026-05-07 14:57 | 41.24499 | 18.38156 | 27968 ft | 387 kts | 296° |
| 2026-05-07 14:58 | 41.25281 | 18.34698 | 28286 ft | 389 kts | 295° |
| 2026-05-07 14:58 | 41.26054 | 18.31275 | 28576 ft | 391 kts | 295° |
| 2026-05-07 14:58 | 41.26843 | 18.27782 | 28871 ft | 393 kts | 295° |
| 2026-05-07 14:58 | 41.27622 | 18.24322 | 29176 ft | 394 kts | 295° |
| 2026-05-07 14:59 | 41.28412 | 18.20811 | 29480 ft | 395 kts | 295° |
| 2026-05-07 14:59 | 41.29195 | 18.17326 | 29785 ft | 396 kts | 295° |
| 2026-05-07 14:59 | 41.29975 | 18.13840 | 30085 ft | 398 kts | 296° |
| 2026-05-07 14:59 | 41.30764 | 18.10317 | 30355 ft | 399 kts | 296° |
| 2026-05-07 15:00 | 41.31559 | 18.06766 | 30639 ft | 400 kts | 296° |
| 2026-05-07 15:00 | 41.32345 | 18.03244 | 30940 ft | 401 kts | 296° |
| 2026-05-07 15:00 | 41.33144 | 17.99657 | 31227 ft | 402 kts | 296° |
| 2026-05-07 15:00 | 41.33935 | 17.96097 | 31477 ft | 404 kts | 296° |
| 2026-05-07 15:01 | 41.34730 | 17.92521 | 31719 ft | 405 kts | 296° |
| 2026-05-07 15:01 | 41.35531 | 17.88912 | 31999 ft | 406 kts | 296° |
| 2026-05-07 15:01 | 41.36322 | 17.85335 | 32252 ft | 407 kts | 296° |
| 2026-05-07 15:01 | 41.37124 | 17.81701 | 32479 ft | 408 kts | 296° |
| 2026-05-07 15:02 | 41.37926 | 17.78068 | 32673 ft | 411 kts | 296° |
| 2026-05-07 15:02 | 41.38733 | 17.74405 | 32897 ft | 412 kts | 296° |
| 2026-05-07 15:02 | 41.39532 | 17.70771 | 33157 ft | 412 kts | 296° |
| 2026-05-07 15:02 | 41.40336 | 17.67104 | 33439 ft | 412 kts | 296° |
| 2026-05-07 15:03 | 41.41135 | 17.63453 | 33746 ft | 410 kts | 296° |
| 2026-05-07 15:03 | 41.41925 | 17.59834 | 34089 ft | 408 kts | 297° |
| 2026-05-07 15:03 | 41.42713 | 17.56217 | 34382 ft | 407 kts | 297° |
| 2026-05-07 15:03 | 41.43498 | 17.52629 | 34601 ft | 408 kts | 297° |
| 2026-05-07 15:04 | 41.44293 | 17.48984 | 34802 ft | 408 kts | 297° |
| 2026-05-07 15:04 | 41.45076 | 17.45386 | 34995 ft | 409 kts | 297° |
| 2026-05-07 15:04 | 41.45868 | 17.41737 | 35186 ft | 410 kts | 297° |
| 2026-05-07 15:04 | 41.46664 | 17.38070 | 35361 ft | 412 kts | 297° |
| 2026-05-07 15:05 | 41.47452 | 17.34430 | 35558 ft | 412 kts | 296° |
| 2026-05-07 15:05 | 41.48247 | 17.30744 | 35731 ft | 412 kts | 296° |
| 2026-05-07 15:05 | 41.49032 | 17.27104 | 35903 ft | 413 kts | 296° |
| 2026-05-07 15:05 | 41.49840 | 17.23415 | 35989 ft | 415 kts | 286° |
| 2026-05-07 15:06 | 41.51472 | 17.15947 | 36003 ft | 426 kts | 285° |
| 2026-05-07 15:06 | 41.53084 | 17.08264 | 36003 ft | 436 kts | 285° |
| 2026-05-07 15:07 | 41.54752 | 17.00365 | 36003 ft | 446 kts | 285° |
| 2026-05-07 15:07 | 41.56439 | 16.92392 | 36002 ft | 448 kts | 286° |
| 2026-05-07 15:08 | 41.58120 | 16.84436 | 36001 ft | 448 kts | 286° |
| 2026-05-07 15:08 | 41.59805 | 16.76430 | 36001 ft | 448 kts | 286° |
| 2026-05-07 15:09 | 41.61483 | 16.68432 | 36001 ft | 448 kts | 286° |
| 2026-05-07 15:09 | 41.63156 | 16.60429 | 36001 ft | 448 kts | 286° |
| 2026-05-07 15:10 | 41.64824 | 16.52417 | 36001 ft | 448 kts | 286° |
| 2026-05-07 15:10 | 41.66494 | 16.44370 | 36001 ft | 448 kts | 286° |
| 2026-05-07 15:11 | 41.68148 | 16.36363 | 36001 ft | 448 kts | 286° |
| 2026-05-07 15:11 | 41.69793 | 16.28371 | 36001 ft | 448 kts | 285° |
| 2026-05-07 15:12 | 41.71444 | 16.20314 | 36001 ft | 448 kts | 285° |
| 2026-05-07 15:12 | 41.73080 | 16.12302 | 36001 ft | 448 kts | 285° |
| 2026-05-07 15:13 | 41.74720 | 16.04244 | 36001 ft | 448 kts | 285° |
| 2026-05-07 15:13 | 41.76340 | 15.96243 | 36001 ft | 448 kts | 285° |
| 2026-05-07 15:14 | 41.77973 | 15.88153 | 36001 ft | 448 kts | 285° |
| 2026-05-07 15:14 | 41.79590 | 15.80108 | 36001 ft | 448 kts | 285° |
| 2026-05-07 15:15 | 41.81203 | 15.72054 | 36001 ft | 448 kts | 285° |
| 2026-05-07 15:15 | 41.82805 | 15.64021 | 36001 ft | 448 kts | 285° |
| 2026-05-07 15:16 | 41.84403 | 15.55975 | 36001 ft | 448 kts | 285° |
| 2026-05-07 15:16 | 41.86004 | 15.47880 | 36001 ft | 448 kts | 285° |
| 2026-05-07 15:17 | 41.87588 | 15.39840 | 36001 ft | 448 kts | 285° |
| 2026-05-07 15:17 | 41.89169 | 15.31782 | 36001 ft | 448 kts | 284° |
| 2026-05-07 15:18 | 41.90755 | 15.23668 | 36002 ft | 448 kts | 284° |
| 2026-05-07 15:18 | 41.92326 | 15.15594 | 36002 ft | 448 kts | 284° |
| 2026-05-07 15:19 | 41.93892 | 15.07515 | 36001 ft | 448 kts | 284° |
| 2026-05-07 15:19 | 41.95456 | 14.99411 | 36001 ft | 448 kts | 284° |
| 2026-05-07 15:20 | 41.97007 | 14.91343 | 36001 ft | 448 kts | 284° |
| 2026-05-07 15:20 | 41.98557 | 14.83246 | 36001 ft | 448 kts | 284° |
| 2026-05-07 15:21 | 42.00103 | 14.75139 | 36001 ft | 448 kts | 284° |
| 2026-05-07 15:21 | 42.01643 | 14.67023 | 36001 ft | 448 kts | 284° |
| 2026-05-07 15:22 | 42.03175 | 14.58920 | 36001 ft | 448 kts | 284° |
| 2026-05-07 15:22 | 42.04703 | 14.50805 | 36001 ft | 448 kts | 284° |
| 2026-05-07 15:23 | 42.06220 | 14.42712 | 36000 ft | 448 kts | 284° |
| 2026-05-07 15:23 | 42.07738 | 14.34576 | 36000 ft | 448 kts | 284° |
| 2026-05-07 15:24 | 42.09244 | 14.26480 | 36002 ft | 448 kts | 284° |
| 2026-05-07 15:24 | 42.10746 | 14.18366 | 36001 ft | 448 kts | 284° |
| 2026-05-07 15:25 | 42.12244 | 14.10237 | 36001 ft | 448 kts | 284° |
| 2026-05-07 15:25 | 42.13734 | 14.02115 | 36001 ft | 448 kts | 284° |
| 2026-05-07 15:26 | 42.15218 | 13.93993 | 36001 ft | 448 kts | 284° |
| 2026-05-07 15:26 | 42.16700 | 13.85848 | 36001 ft | 448 kts | 284° |
| 2026-05-07 15:27 | 42.18173 | 13.77712 | 36001 ft | 448 kts | 284° |
| 2026-05-07 15:27 | 42.19629 | 13.69553 | 36002 ft | 448 kts | 283° |
| 2026-05-07 15:28 | 42.21047 | 13.61373 | 36002 ft | 448 kts | 283° |
| 2026-05-07 15:28 | 42.22462 | 13.53178 | 36002 ft | 448 kts | 283° |
| 2026-05-07 15:29 | 42.23863 | 13.45033 | 36002 ft | 448 kts | 283° |
| 2026-05-07 15:29 | 42.25267 | 13.36842 | 36002 ft | 448 kts | 283° |
| 2026-05-07 15:30 | 42.26656 | 13.28702 | 36001 ft | 448 kts | 283° |
| 2026-05-07 15:30 | 42.28050 | 13.20490 | 36001 ft | 448 kts | 283° |
| 2026-05-07 15:31 | 42.29436 | 13.12293 | 36001 ft | 448 kts | 283° |
| 2026-05-07 15:31 | 42.30814 | 13.04102 | 36001 ft | 448 kts | 283° |
| 2026-05-07 15:32 | 42.32186 | 12.95913 | 36001 ft | 448 kts | 283° |
| 2026-05-07 15:32 | 42.33553 | 12.87714 | 36001 ft | 448 kts | 283° |
| 2026-05-07 15:33 | 42.34914 | 12.79511 | 36001 ft | 448 kts | 283° |
| 2026-05-07 15:33 | 42.36265 | 12.71328 | 36001 ft | 448 kts | 283° |
| 2026-05-07 15:34 | 42.37614 | 12.63119 | 36001 ft | 448 kts | 283° |
| 2026-05-07 15:34 | 42.38963 | 12.54872 | 36001 ft | 448 kts | 283° |
| 2026-05-07 15:35 | 42.40300 | 12.46658 | 36001 ft | 448 kts | 283° |
| 2026-05-07 15:35 | 42.41630 | 12.38450 | 36001 ft | 448 kts | 283° |
| 2026-05-07 15:36 | 42.42952 | 12.30246 | 36001 ft | 448 kts | 282° |
| 2026-05-07 15:36 | 42.44275 | 12.22004 | 36001 ft | 448 kts | 282° |
| 2026-05-07 15:37 | 42.45586 | 12.13792 | 36001 ft | 448 kts | 282° |
| 2026-05-07 15:37 | 42.46894 | 12.05561 | 36001 ft | 448 kts | 282° |
| 2026-05-07 15:38 | 42.48201 | 11.97288 | 36001 ft | 448 kts | 282° |
| 2026-05-07 15:38 | 42.49494 | 11.89073 | 36001 ft | 448 kts | 282° |
| 2026-05-07 15:39 | 42.50833 | 11.80829 | 36001 ft | 448 kts | 282° |
| 2026-05-07 15:39 | 42.52173 | 11.72597 | 36001 ft | 448 kts | 282° |
| 2026-05-07 15:40 | 42.53503 | 11.64363 | 36001 ft | 448 kts | 282° |
| 2026-05-07 15:40 | 42.54825 | 11.56135 | 36001 ft | 448 kts | 282° |
| 2026-05-07 15:41 | 42.56138 | 11.47920 | 36001 ft | 448 kts | 282° |
| 2026-05-07 15:41 | 42.57454 | 11.39639 | 36001 ft | 448 kts | 282° |
| 2026-05-07 15:42 | 42.58757 | 11.31404 | 36001 ft | 448 kts | 282° |
| 2026-05-07 15:42 | 42.60059 | 11.23126 | 36001 ft | 448 kts | 282° |
| 2026-05-07 15:43 | 42.61348 | 11.14901 | 36001 ft | 448 kts | 282° |
| 2026-05-07 15:43 | 42.62637 | 11.06630 | 36001 ft | 448 kts | 282° |
| 2026-05-07 15:44 | 42.63915 | 10.98386 | 36001 ft | 448 kts | 282° |
| 2026-05-07 15:44 | 42.65191 | 10.90118 | 36001 ft | 448 kts | 282° |
| 2026-05-07 15:45 | 42.66460 | 10.81848 | 36001 ft | 448 kts | 282° |
| 2026-05-07 15:45 | 42.67731 | 10.73527 | 36001 ft | 448 kts | 282° |
| 2026-05-07 15:46 | 42.69610 | 10.61142 | 36001 ft | 448 kts | 282° |
| 2026-05-07 15:47 | 42.70856 | 10.52875 | 36001 ft | 448 kts | 282° |
| 2026-05-07 15:47 | 42.72101 | 10.44572 | 36001 ft | 448 kts | 282° |
| 2026-05-07 15:48 | 42.73341 | 10.36257 | 36001 ft | 448 kts | 282° |
| 2026-05-07 15:48 | 42.74572 | 10.27963 | 36001 ft | 448 kts | 281° |
| 2026-05-07 15:49 | 42.75796 | 10.19673 | 36001 ft | 448 kts | 281° |
| 2026-05-07 15:49 | 42.77010 | 10.11410 | 36001 ft | 448 kts | 281° |
| 2026-05-07 15:50 | 42.78228 | 10.03071 | 36001 ft | 448 kts | 281° |
| 2026-05-07 15:50 | 42.79427 | 9.94815 | 36001 ft | 448 kts | 281° |
| 2026-05-07 15:51 | 42.80635 | 9.86454 | 36001 ft | 448 kts | 281° |
| 2026-05-07 15:51 | 42.81825 | 9.78159 | 36001 ft | 448 kts | 281° |
| 2026-05-07 15:52 | 42.83005 | 9.69848 | 36001 ft | 448 kts | 281° |
| 2026-05-07 15:52 | 42.84166 | 9.61513 | 36001 ft | 448 kts | 281° |
| 2026-05-07 15:53 | 42.85317 | 9.53218 | 36001 ft | 448 kts | 281° |
| 2026-05-07 15:53 | 42.86471 | 9.44849 | 36001 ft | 448 kts | 281° |
| 2026-05-07 15:54 | 42.87614 | 9.36508 | 36001 ft | 448 kts | 281° |
| 2026-05-07 15:54 | 42.88747 | 9.28187 | 36001 ft | 448 kts | 280° |
| 2026-05-07 15:55 | 42.89880 | 9.19832 | 36002 ft | 448 kts | 280° |
| 2026-05-07 15:55 | 42.91011 | 9.11501 | 36001 ft | 448 kts | 280° |
| 2026-05-07 15:56 | 42.92137 | 9.03157 | 36001 ft | 448 kts | 280° |
| 2026-05-07 15:56 | 42.93254 | 8.94824 | 36001 ft | 448 kts | 280° |
| 2026-05-07 15:57 | 42.94357 | 8.86488 | 36001 ft | 448 kts | 280° |
| 2026-05-07 15:57 | 42.95444 | 8.78118 | 36001 ft | 448 kts | 281° |
| 2026-05-07 15:58 | 42.96640 | 8.69781 | 36001 ft | 448 kts | 281° |
| 2026-05-07 15:58 | 42.97855 | 8.61435 | 36001 ft | 448 kts | 281° |
| 2026-05-07 15:59 | 42.99047 | 8.53132 | 36001 ft | 448 kts | 281° |
| 2026-05-07 15:59 | 43.00231 | 8.44795 | 36001 ft | 448 kts | 281° |
| 2026-05-07 16:00 | 43.01311 | 8.36423 | 36000 ft | 448 kts | 278° |
| 2026-05-07 16:00 | 43.01994 | 8.27977 | 36002 ft | 448 kts | 278° |
| 2026-05-07 16:01 | 43.03004 | 8.19558 | 36002 ft | 448 kts | 279° |
| 2026-05-07 16:01 | 43.04061 | 8.11173 | 36002 ft | 448 kts | 279° |
| 2026-05-07 16:02 | 43.05110 | 8.02794 | 36001 ft | 448 kts | 279° |
| 2026-05-07 16:02 | 43.06149 | 7.94419 | 36001 ft | 448 kts | 279° |
| 2026-05-07 16:03 | 43.07179 | 7.86048 | 36001 ft | 448 kts | 279° |
| 2026-05-07 16:03 | 43.08210 | 7.77634 | 36001 ft | 448 kts | 279° |
| 2026-05-07 16:04 | 43.09235 | 7.69281 | 36001 ft | 448 kts | 279° |
| 2026-05-07 16:04 | 43.10260 | 7.60867 | 36001 ft | 448 kts | 279° |
| 2026-05-07 16:05 | 43.11274 | 7.52470 | 36002 ft | 448 kts | 279° |
| 2026-05-07 16:05 | 43.12277 | 7.44088 | 36002 ft | 448 kts | 279° |
| 2026-05-07 16:06 | 43.13276 | 7.35674 | 36002 ft | 448 kts | 279° |
| 2026-05-07 16:06 | 43.14268 | 7.27257 | 36001 ft | 448 kts | 279° |
| 2026-05-07 16:07 | 43.15252 | 7.18866 | 36001 ft | 448 kts | 279° |
| 2026-05-07 16:07 | 43.16229 | 7.10458 | 36001 ft | 448 kts | 279° |
| 2026-05-07 16:08 | 43.17204 | 7.02039 | 36001 ft | 448 kts | 279° |
| 2026-05-07 16:08 | 43.18169 | 6.93642 | 36001 ft | 448 kts | 279° |
| 2026-05-07 16:09 | 43.19132 | 6.85207 | 36001 ft | 448 kts | 279° |
| 2026-05-07 16:09 | 43.20083 | 6.76809 | 36001 ft | 448 kts | 279° |
| 2026-05-07 16:10 | 43.21031 | 6.68376 | 36002 ft | 448 kts | 279° |
| 2026-05-07 16:10 | 43.21845 | 6.59916 | 36001 ft | 448 kts | 275° |
| 2026-05-07 16:11 | 43.22089 | 6.51415 | 36002 ft | 448 kts | 271° |
| 2026-05-07 16:11 | 43.22199 | 6.42883 | 36002 ft | 448 kts | 271° |
| 2026-05-07 16:12 | 43.22321 | 6.34325 | 36002 ft | 448 kts | 271° |
| 2026-05-07 16:12 | 43.22444 | 6.25825 | 36001 ft | 448 kts | 271° |
| 2026-05-07 16:13 | 43.22559 | 6.17262 | 36001 ft | 448 kts | 271° |
| 2026-05-07 16:13 | 43.22657 | 6.08778 | 36001 ft | 448 kts | 270° |
| 2026-05-07 16:14 | 43.22731 | 6.00249 | 36001 ft | 448 kts | 270° |
| 2026-05-07 16:14 | 43.22797 | 5.91712 | 36001 ft | 448 kts | 270° |
| 2026-05-07 16:15 | 43.22863 | 5.83195 | 36001 ft | 448 kts | 271° |
| 2026-05-07 16:15 | 43.22927 | 5.74649 | 36001 ft | 448 kts | 270° |
| 2026-05-07 16:16 | 43.22983 | 5.66128 | 36002 ft | 448 kts | 271° |
| 2026-05-07 16:16 | 43.23038 | 5.57618 | 36002 ft | 448 kts | 271° |
| 2026-05-07 16:17 | 43.23089 | 5.49069 | 36002 ft | 448 kts | 271° |
| 2026-05-07 16:17 | 43.23130 | 5.40555 | 36002 ft | 448 kts | 271° |
| 2026-05-07 16:18 | 43.23349 | 5.32057 | 36001 ft | 448 kts | 275° |
| 2026-05-07 16:18 | 43.24111 | 5.23572 | 36001 ft | 448 kts | 277° |
| 2026-05-07 16:19 | 43.24954 | 5.15136 | 36001 ft | 448 kts | 277° |
| 2026-05-07 16:19 | 43.25786 | 5.06670 | 36001 ft | 448 kts | 277° |
| 2026-05-07 16:20 | 43.26606 | 4.98206 | 36001 ft | 448 kts | 277° |
| 2026-05-07 16:20 | 43.27379 | 4.89753 | 36001 ft | 448 kts | 275° |
| 2026-05-07 16:21 | 43.28001 | 4.81267 | 36001 ft | 448 kts | 279° |
| 2026-05-07 16:21 | 43.29356 | 4.72964 | 36001 ft | 448 kts | 287° |
| 2026-05-07 16:22 | 43.31570 | 4.64949 | 36001 ft | 448 kts | 295° |
| 2026-05-07 16:22 | 43.34452 | 4.57412 | 36002 ft | 448 kts | 299° |
| 2026-05-07 16:23 | 43.37476 | 4.49918 | 36002 ft | 448 kts | 299° |
| 2026-05-07 16:23 | 43.40435 | 4.42447 | 36001 ft | 448 kts | 298° |
| 2026-05-07 16:24 | 43.43369 | 4.34906 | 36001 ft | 448 kts | 298° |
| 2026-05-07 16:24 | 43.46314 | 4.27322 | 36001 ft | 448 kts | 298° |
| 2026-05-07 16:25 | 43.49220 | 4.19828 | 35995 ft | 434 kts | 298° |
| 2026-05-07 16:25 | 43.52008 | 4.12617 | 36000 ft | 426 kts | 298° |
| 2026-05-07 16:26 | 43.54771 | 4.05454 | 36001 ft | 425 kts | 298° |
| 2026-05-07 16:26 | 43.57288 | 3.98104 | 36001 ft | 425 kts | 291° |
| 2026-05-07 16:27 | 43.59150 | 3.90405 | 36001 ft | 425 kts | 285° |
| 2026-05-07 16:27 | 43.60612 | 3.82519 | 36001 ft | 425 kts | 284° |
| 2026-05-07 16:28 | 43.62050 | 3.74631 | 36001 ft | 425 kts | 284° |
| 2026-05-07 16:28 | 43.63493 | 3.66722 | 36001 ft | 425 kts | 284° |
| 2026-05-07 16:29 | 43.64929 | 3.58840 | 36001 ft | 425 kts | 284° |
| 2026-05-07 16:29 | 43.66364 | 3.50930 | 36001 ft | 425 kts | 284° |
| 2026-05-07 16:30 | 43.67798 | 3.42997 | 36001 ft | 425 kts | 284° |
| 2026-05-07 16:30 | 43.69218 | 3.35106 | 36001 ft | 425 kts | 284° |
| 2026-05-07 16:31 | 43.70642 | 3.27163 | 36001 ft | 425 kts | 283° |
| 2026-05-07 16:31 | 43.72057 | 3.19233 | 36001 ft | 425 kts | 283° |
| 2026-05-07 16:32 | 43.73463 | 3.11321 | 36001 ft | 425 kts | 283° |
| 2026-05-07 16:32 | 43.74864 | 3.03404 | 36001 ft | 425 kts | 283° |
| 2026-05-07 16:33 | 43.76261 | 2.95461 | 36001 ft | 425 kts | 283° |
| 2026-05-07 16:33 | 43.77503 | 2.87504 | 36001 ft | 425 kts | 279° |
| 2026-05-07 16:34 | 43.78095 | 2.79375 | 36001 ft | 425 kts | 272° |
| 2026-05-07 16:34 | 43.78189 | 2.71208 | 36001 ft | 425 kts | 271° |
| 2026-05-07 16:35 | 43.78245 | 2.63047 | 36001 ft | 425 kts | 271° |
| 2026-05-07 16:35 | 43.78301 | 2.54880 | 36001 ft | 425 kts | 271° |
| 2026-05-07 16:36 | 43.78353 | 2.46757 | 36001 ft | 425 kts | 271° |
| 2026-05-07 16:36 | 43.78402 | 2.38560 | 36001 ft | 425 kts | 271° |
| 2026-05-07 16:37 | 43.78445 | 2.30405 | 36001 ft | 425 kts | 270° |
| 2026-05-07 16:37 | 43.78482 | 2.22223 | 36001 ft | 425 kts | 270° |
| 2026-05-07 16:38 | 43.78514 | 2.14092 | 36001 ft | 425 kts | 270° |
| 2026-05-07 16:38 | 43.78540 | 2.05902 | 36001 ft | 425 kts | 270° |
| 2026-05-07 16:39 | 43.78560 | 1.97773 | 36001 ft | 425 kts | 270° |
| 2026-05-07 16:39 | 43.78574 | 1.89609 | 36001 ft | 425 kts | 270° |
| 2026-05-07 16:40 | 43.78582 | 1.81399 | 36001 ft | 425 kts | 270° |
| 2026-05-07 16:40 | 43.78585 | 1.73282 | 36001 ft | 425 kts | 270° |
| 2026-05-07 16:41 | 43.78581 | 1.65099 | 36001 ft | 425 kts | 270° |
| 2026-05-07 16:41 | 43.78572 | 1.56935 | 36001 ft | 425 kts | 270° |
| 2026-05-07 16:42 | 43.78557 | 1.48741 | 36001 ft | 425 kts | 270° |
| 2026-05-07 16:42 | 43.78537 | 1.40591 | 36001 ft | 425 kts | 270° |
| 2026-05-07 16:43 | 43.78509 | 1.32331 | 36003 ft | 437 kts | 269° |
| 2026-05-07 16:43 | 43.78476 | 1.23824 | 36003 ft | 447 kts | 269° |
| 2026-05-07 16:44 | 43.78341 | 1.15200 | 36002 ft | 448 kts | 267° |
| 2026-05-07 16:44 | 43.77966 | 1.06611 | 36002 ft | 448 kts | 266° |
| 2026-05-07 16:45 | 43.77581 | 0.97990 | 36001 ft | 448 kts | 266° |
| 2026-05-07 16:45 | 43.77206 | 0.89415 | 36001 ft | 448 kts | 266° |
| 2026-05-07 16:46 | 43.76826 | 0.80742 | 36001 ft | 448 kts | 266° |
| 2026-05-07 16:46 | 43.76446 | 0.72141 | 36001 ft | 448 kts | 266° |
| 2026-05-07 16:47 | 43.76057 | 0.63476 | 36001 ft | 448 kts | 266° |
| 2026-05-07 16:47 | 43.75664 | 0.54873 | 36001 ft | 448 kts | 266° |
| 2026-05-07 16:48 | 43.75267 | 0.46305 | 36001 ft | 448 kts | 266° |
| 2026-05-07 16:48 | 43.74863 | 0.37737 | 36001 ft | 448 kts | 266° |